Dawpool — V7XK6 — position and weather

sailwx.info

Track history (hours):
 
Tides and Currents Weather Stations Pressure Air Temp Water Temp Dewpoint Dewpoint Depression Visibility Wind Speed Wind Dir Waves Ship Positions

Dawpool

Last reported at 2017-Aug-22 17:19 UTC. Time now 2017-Sep-19 13:35 UTC.
Position N 26°15' W 015°04'.
Warning: this ship's position is 27 days out of date.

Length 120 m; draft 6.3 m.

Type: Cargo ship. MMSI: 538004502.

Date/timePositionNaut miles runAvg speedWind from/ knotsBaromVisibWave heightAir tempDewpointWater temp
2017-Aug-22 17:19N 26°15' W 015°04'310.3
2017-Aug-22 17:01N 26°17' W 015°02'1210.2
2017-Aug-22 15:48N 26°27' W 014°53'6 9.6
2017-Aug-22 15:12N 26°32' W 014°49'2 9.3
2017-Aug-22 15:00N 26°33' W 014°48'5 9.3
2017-Aug-22 14:30N 26°37' W 014°45'5 9.4
2017-Aug-22 14:00N 26°41' W 014°42'5 9.5
2017-Aug-22 13:30N 26°44' W 014°39'5 9.6
2017-Aug-22 13:00N 26°48' W 014°36'5 9.6
2017-Aug-22 12:30N 26°52' W 014°33'5 9.8
2017-Aug-22 11:59N 26°56' W 014°29'6 9.4
2017-Aug-22 11:22N 27°01' W 014°25'4 9.3
2017-Aug-22 10:59N 27°03' W 014°22'4 9.3
2017-Aug-22 10:31N 27°07' W 014°19'5 9.5
2017-Aug-22 10:00N 27°11' W 014°16'510.0
2017-Aug-22 09:30N 27°15' W 014°13'610.3
2017-Aug-22 08:54N 27°19' W 014°08'410.5
2017-Aug-22 08:30N 27°23' W 014°05'510.7
2017-Aug-22 08:00N 27°27' W 014°02'611.0
2017-Aug-22 07:30N 27°32' W 013°59'611.2
2017-Aug-22 07:01N 27°37' W 013°56'611.2
2017-Aug-22 06:30N 27°42' W 013°53'510.7
2017-Aug-22 06:00N 27°47' W 013°50'510.5
2017-Aug-22 05:30N 27°51' W 013°48'510.5
2017-Aug-22 05:01N 27°56' W 013°45'510.6
2017-Aug-22 04:30N 28°01' W 013°42'510.6
2017-Aug-22 04:00N 28°06' W 013°40'510.6
2017-Aug-22 03:31N 28°10' W 013°37'510.6
2017-Aug-22 03:00N 28°15' W 013°35'510.5
2017-Aug-22 02:30N 28°20' W 013°32'510.1
2017-Aug-22 02:00N 28°25' W 013°30'5 9.9
2017-Aug-22 01:30N 28°29' W 013°28'5 9.9
2017-Aug-22 01:00N 28°34' W 013°25'5 9.8
2017-Aug-22 00:29N 28°38' W 013°22'510.0
2017-Aug-22 00:00N 28°42' W 013°20'510.0
2017-Aug-21 23:30N 28°47' W 013°18'5 9.9
2017-Aug-21 23:01N 28°52' W 013°16'5 9.8
2017-Aug-21 22:31N 28°56' W 013°13'5 9.8
2017-Aug-21 22:00N 29°00' W 013°11'5 9.9
2017-Aug-21 21:30N 29°04' W 013°08'5 9.9
2017-Aug-21 21:00N 29°08' W 013°04'510.0
2017-Aug-21 20:31N 29°12' W 013°01'5 9.8
2017-Aug-21 20:01N 29°16' W 012°57'5 9.8
2017-Aug-21 19:30N 29°20' W 012°54'5 9.9
2017-Aug-21 19:00N 29°24' W 012°50'5 9.9
2017-Aug-21 18:30N 29°28' W 012°47'5 9.8
2017-Aug-21 18:01N 29°32' W 012°43'5 9.8
2017-Aug-21 17:30N 29°36' W 012°40'5 9.8
2017-Aug-21 17:01N 29°39' W 012°37'5 9.9
2017-Aug-21 16:30N 29°43' W 012°33'510.2
2017-Aug-21 16:01N 29°48' W 012°30'510.1
2017-Aug-21 15:30N 29°52' W 012°26'510.0
2017-Aug-21 15:00N 29°56' W 012°23'510.1
2017-Aug-21 14:30N 29°60' W 012°20'510.0
2017-Aug-21 14:00N 30°04' W 012°16'5 9.9
2017-Aug-21 13:30N 30°08' W 012°13'5 9.7
2017-Aug-21 13:00N 30°12' W 012°10'8 9.7
2017-Aug-21 12:08N 30°19' W 012°04'1 9.5
2017-Aug-21 12:00N 30°20' W 012°03'5 9.4
2017-Aug-21 11:30N 30°24' W 011°60'5 9.3
2017-Aug-21 11:00N 30°27' W 011°56'5 9.2
2017-Aug-21 10:25N 30°31' W 011°52'4 9.4
2017-Aug-21 10:00N 30°34' W 011°49'5 9.3
2017-Aug-21 09:30N 30°38' W 011°46'5 9.5
2017-Aug-21 09:00N 30°41' W 011°42'5 9.8
2017-Aug-21 08:30N 30°45' W 011°39'7 9.7
2017-Aug-21 07:47N 30°51' W 011°34'3 9.9
2017-Aug-21 07:30N 30°53' W 011°32'6 9.6
2017-Aug-21 06:53N 30°58' W 011°28'4 9.4
2017-Aug-21 06:30N 31°01' W 011°25'6 9.6
2017-Aug-21 05:53N 31°05' W 011°21'4 9.8
2017-Aug-21 05:30N 31°08' W 011°18'510.0
2017-Aug-21 05:00N 31°12' W 011°14'510.1
2017-Aug-21 04:30N 31°15' W 011°10'510.5
2017-Aug-21 04:00N 31°19' W 011°06'710.8
2017-Aug-21 03:22N 31°24' W 011°00'410.7
2017-Aug-21 03:01N 31°27' W 010°58'510.4
2017-Aug-21 02:30N 31°31' W 010°54'510.2
2017-Aug-21 02:01N 31°35' W 010°50'510.3
2017-Aug-21 01:30N 31°40' W 010°47'510.3
2017-Aug-21 01:00N 31°44' W 010°43'510.3
2017-Aug-21 00:30N 31°48' W 010°39'510.1
2017-Aug-21 00:00N 31°52' W 010°36'5 9.8
2017-Aug-20 23:30N 31°56' W 010°32'5 9.9
2017-Aug-20 23:00N 31°60' W 010°29'510.1
2017-Aug-20 22:29N 32°04' W 010°25'8 9.7
2017-Aug-20 21:38N 32°10' W 010°19'2 9.5
2017-Aug-20 21:29N 32°11' W 010°17'15 9.6
2017-Aug-20 19:56N 32°23' W 010°06'510.2
2017-Aug-20 19:28N 32°27' W 010°03'510.0
2017-Aug-20 19:00N 32°30' W 009°60'510.0
2017-Aug-20 18:30N 32°34' W 009°56'710.0
2017-Aug-20 17:50N 32°39' W 009°51'410.2
2017-Aug-20 17:28N 32°42' W 009°48'510.9
2017-Aug-20 17:00N 32°46' W 009°44'2210.6
2017-Aug-20 14:57N 33°03' W 009°28'510.2
2017-Aug-20 14:30N 33°07' W 009°25'510.1
2017-Aug-20 14:00N 33°11' W 009°21'55 8.2
2017-Aug-20 07:13N 33°54' W 008°40'112 9.7
2017-Aug-19 19:43N 35°34' W 007°38'3510.3
2017-Aug-19 16:20N 35°60' W 007°10'710.5
2017-Aug-19 15:43N 36°05' W 007°05'210.7
2017-Aug-19 15:30N 36°07' W 007°03'  
2017-Aug-15 20:21N 35°51' W 007°12'42110.2
2017-Aug-14 03:16N 30°13' W 012°11'3 9.7
2017-Aug-14 02:59N 30°11' W 012°13'5 9.8
2017-Aug-14 02:28N 30°07' W 012°16'9 9.7
2017-Aug-14 01:31N 29°59' W 012°23'0 9.6
2017-Aug-14 01:30N 29°59' W 012°23'5 9.9
2017-Aug-14 00:59N 29°55' W 012°26'610.1
2017-Aug-14 00:25N 29°50' W 012°30'4 9.8
2017-Aug-14 00:00N 29°47' W 012°33'5 9.5
2017-Aug-13 23:30N 29°43' W 012°36'52 9.6
2017-Aug-13 18:02N 29°01' W 013°12'010.0
2017-Aug-13 18:00N 29°01' W 013°12'5 9.8
2017-Aug-13 17:31N 28°56' W 013°14'510.0
2017-Aug-13 17:00N 28°52' W 013°17'5 9.8
2017-Aug-13 16:31N 28°48' W 013°20'510.2
2017-Aug-13 16:01N 28°43' W 013°22'5 9.7
2017-Aug-13 15:31N 28°39' W 013°25'5 9.7
2017-Aug-13 15:01N 28°35' W 013°27'510.1
2017-Aug-13 14:31N 28°30' W 013°30'1210.5
2017-Aug-13 13:25N 28°19' W 013°35'410.3
2017-Aug-13 12:59N 28°15' W 013°35'2011.2
2017-Aug-13 11:10N 27°56' W 013°45'210.9
2017-Aug-13 11:01N 27°55' W 013°45'611.2
2017-Aug-13 10:30N 27°49' W 013°47'611.2
2017-Aug-13 09:59N 27°44' W 013°48'611.3
2017-Aug-13 09:29N 27°38' W 013°50'611.1
2017-Aug-13 08:59N 27°33' W 013°53'  
Track history (hours):
 
Tides and Currents Weather Stations Pressure Air Temp Water Temp Dewpoint Dewpoint Depression Visibility Wind Speed Wind Dir Waves Ship Positions

Dawpool

Last reported at 2017-Aug-22 17:19 UTC. Time now 2017-Sep-19 13:35 UTC.
Position N 26°15' W 015°04'.
Warning: this ship's position is 27 days out of date.

Length 120 m; draft 6.3 m.

Type: Cargo ship. MMSI: 538004502.

Date/timePositionNaut miles runAvg speedWind from/ knotsBaromVisibWave heightAir tempDewpointWater temp
2017-Aug-22 17:19N 26°15' W 015°04'310.3
2017-Aug-22 17:01N 26°17' W 015°02'1210.2
2017-Aug-22 15:48N 26°27' W 014°53'6 9.6
2017-Aug-22 15:12N 26°32' W 014°49'2 9.3
2017-Aug-22 15:00N 26°33' W 014°48'5 9.3
2017-Aug-22 14:30N 26°37' W 014°45'5 9.4
2017-Aug-22 14:00N 26°41' W 014°42'5 9.5
2017-Aug-22 13:30N 26°44' W 014°39'5 9.6
2017-Aug-22 13:00N 26°48' W 014°36'5 9.6
2017-Aug-22 12:30N 26°52' W 014°33'5 9.8
2017-Aug-22 11:59N 26°56' W 014°29'6 9.4
2017-Aug-22 11:22N 27°01' W 014°25'4 9.3
2017-Aug-22 10:59N 27°03' W 014°22'4 9.3
2017-Aug-22 10:31N 27°07' W 014°19'5 9.5
2017-Aug-22 10:00N 27°11' W 014°16'510.0
2017-Aug-22 09:30N 27°15' W 014°13'610.3
2017-Aug-22 08:54N 27°19' W 014°08'410.5
2017-Aug-22 08:30N 27°23' W 014°05'510.7
2017-Aug-22 08:00N 27°27' W 014°02'611.0
2017-Aug-22 07:30N 27°32' W 013°59'611.2
2017-Aug-22 07:01N 27°37' W 013°56'611.2
2017-Aug-22 06:30N 27°42' W 013°53'510.7
2017-Aug-22 06:00N 27°47' W 013°50'510.5
2017-Aug-22 05:30N 27°51' W 013°48'510.5
2017-Aug-22 05:01N 27°56' W 013°45'510.6
2017-Aug-22 04:30N 28°01' W 013°42'510.6
2017-Aug-22 04:00N 28°06' W 013°40'510.6
2017-Aug-22 03:31N 28°10' W 013°37'510.6
2017-Aug-22 03:00N 28°15' W 013°35'510.5
2017-Aug-22 02:30N 28°20' W 013°32'510.1
2017-Aug-22 02:00N 28°25' W 013°30'5 9.9
2017-Aug-22 01:30N 28°29' W 013°28'5 9.9
2017-Aug-22 01:00N 28°34' W 013°25'5 9.8
2017-Aug-22 00:29N 28°38' W 013°22'510.0
2017-Aug-22 00:00N 28°42' W 013°20'510.0
2017-Aug-21 23:30N 28°47' W 013°18'5 9.9
2017-Aug-21 23:01N 28°52' W 013°16'5 9.8
2017-Aug-21 22:31N 28°56' W 013°13'5 9.8
2017-Aug-21 22:00N 29°00' W 013°11'5 9.9
2017-Aug-21 21:30N 29°04' W 013°08'5 9.9
2017-Aug-21 21:00N 29°08' W 013°04'510.0
2017-Aug-21 20:31N 29°12' W 013°01'5 9.8
2017-Aug-21 20:01N 29°16' W 012°57'5 9.8
2017-Aug-21 19:30N 29°20' W 012°54'5 9.9
2017-Aug-21 19:00N 29°24' W 012°50'5 9.9
2017-Aug-21 18:30N 29°28' W 012°47'5 9.8
2017-Aug-21 18:01N 29°32' W 012°43'5 9.8
2017-Aug-21 17:30N 29°36' W 012°40'5 9.8
2017-Aug-21 17:01N 29°39' W 012°37'5 9.9
2017-Aug-21 16:30N 29°43' W 012°33'510.2
2017-Aug-21 16:01N 29°48' W 012°30'510.1
2017-Aug-21 15:30N 29°52' W 012°26'510.0
2017-Aug-21 15:00N 29°56' W 012°23'510.1
2017-Aug-21 14:30N 29°60' W 012°20'510.0
2017-Aug-21 14:00N 30°04' W 012°16'5 9.9
2017-Aug-21 13:30N 30°08' W 012°13'5 9.7
2017-Aug-21 13:00N 30°12' W 012°10'8 9.7
2017-Aug-21 12:08N 30°19' W 012°04'1 9.5
2017-Aug-21 12:00N 30°20' W 012°03'5 9.4
2017-Aug-21 11:30N 30°24' W 011°60'5 9.3
2017-Aug-21 11:00N 30°27' W 011°56'5 9.2
2017-Aug-21 10:25N 30°31' W 011°52'4 9.4
2017-Aug-21 10:00N 30°34' W 011°49'5 9.3
2017-Aug-21 09:30N 30°38' W 011°46'5 9.5
2017-Aug-21 09:00N 30°41' W 011°42'5 9.8
2017-Aug-21 08:30N 30°45' W 011°39'7 9.7
2017-Aug-21 07:47N 30°51' W 011°34'3 9.9
2017-Aug-21 07:30N 30°53' W 011°32'6 9.6
2017-Aug-21 06:53N 30°58' W 011°28'4 9.4
2017-Aug-21 06:30N 31°01' W 011°25'6 9.6
2017-Aug-21 05:53N 31°05' W 011°21'4 9.8
2017-Aug-21 05:30N 31°08' W 011°18'510.0
2017-Aug-21 05:00N 31°12' W 011°14'510.1
2017-Aug-21 04:30N 31°15' W 011°10'510.5
2017-Aug-21 04:00N 31°19' W 011°06'710.8
2017-Aug-21 03:22N 31°24' W 011°00'410.7
2017-Aug-21 03:01N 31°27' W 010°58'510.4
2017-Aug-21 02:30N 31°31' W 010°54'510.2
2017-Aug-21 02:01N 31°35' W 010°50'510.3
2017-Aug-21 01:30N 31°40' W 010°47'510.3
2017-Aug-21 01:00N 31°44' W 010°43'510.3
2017-Aug-21 00:30N 31°48' W 010°39'510.1
2017-Aug-21 00:00N 31°52' W 010°36'5 9.8
2017-Aug-20 23:30N 31°56' W 010°32'5 9.9
2017-Aug-20 23:00N 31°60' W 010°29'510.1
2017-Aug-20 22:29N 32°04' W 010°25'8 9.7
2017-Aug-20 21:38N 32°10' W 010°19'2 9.5
2017-Aug-20 21:29N 32°11' W 010°17'15 9.6
2017-Aug-20 19:56N 32°23' W 010°06'510.2
2017-Aug-20 19:28N 32°27' W 010°03'510.0
2017-Aug-20 19:00N 32°30' W 009°60'510.0
2017-Aug-20 18:30N 32°34' W 009°56'710.0
2017-Aug-20 17:50N 32°39' W 009°51'410.2
2017-Aug-20 17:28N 32°42' W 009°48'510.9
2017-Aug-20 17:00N 32°46' W 009°44'2210.6
2017-Aug-20 14:57N 33°03' W 009°28'510.2
2017-Aug-20 14:30N 33°07' W 009°25'510.1
2017-Aug-20 14:00N 33°11' W 009°21'55 8.2
2017-Aug-20 07:13N 33°54' W 008°40'112 9.7
2017-Aug-19 19:43N 35°34' W 007°38'3510.3
2017-Aug-19 16:20N 35°60' W 007°10'710.5
2017-Aug-19 15:43N 36°05' W 007°05'210.7
2017-Aug-19 15:30N 36°07' W 007°03'  
2017-Aug-15 20:21N 35°51' W 007°12'42110.2
2017-Aug-14 03:16N 30°13' W 012°11'3 9.7
2017-Aug-14 02:59N 30°11' W 012°13'5 9.8
2017-Aug-14 02:28N 30°07' W 012°16'9 9.7
2017-Aug-14 01:31N 29°59' W 012°23'0 9.6
2017-Aug-14 01:30N 29°59' W 012°23'5 9.9
2017-Aug-14 00:59N 29°55' W 012°26'610.1
2017-Aug-14 00:25N 29°50' W 012°30'4 9.8
2017-Aug-14 00:00N 29°47' W 012°33'5 9.5
2017-Aug-13 23:30N 29°43' W 012°36'52 9.6
2017-Aug-13 18:02N 29°01' W 013°12'010.0
2017-Aug-13 18:00N 29°01' W 013°12'5 9.8
2017-Aug-13 17:31N 28°56' W 013°14'510.0
2017-Aug-13 17:00N 28°52' W 013°17'5 9.8
2017-Aug-13 16:31N 28°48' W 013°20'510.2
2017-Aug-13 16:01N 28°43' W 013°22'5 9.7
2017-Aug-13 15:31N 28°39' W 013°25'5 9.7
2017-Aug-13 15:01N 28°35' W 013°27'510.1
2017-Aug-13 14:31N 28°30' W 013°30'1210.5
2017-Aug-13 13:25N 28°19' W 013°35'410.3
2017-Aug-13 12:59N 28°15' W 013°35'2011.2
2017-Aug-13 11:10N 27°56' W 013°45'210.9
2017-Aug-13 11:01N 27°55' W 013°45'611.2
2017-Aug-13 10:30N 27°49' W 013°47'611.2
2017-Aug-13 09:59N 27°44' W 013°48'611.3
2017-Aug-13 09:29N 27°38' W 013°50'611.1
2017-Aug-13 08:59N 27°33' W 013°53'  

Dump ship's entire track history